createdAt,value
2018-06-02T00:00:25.820Z,7.10
2018-06-02T00:02:56.827Z,7.60
2018-06-02T00:05:27.835Z,7.33
2018-06-02T00:07:58.851Z,7.63
2018-06-02T00:10:29.862Z,7.43
2018-06-02T00:13:00.859Z,9.07
2018-06-02T00:15:31.910Z,7.13
2018-06-02T00:18:02.924Z,6.63
2018-06-02T00:20:33.940Z,7.13
2018-06-02T00:23:04.938Z,7.43
2018-06-02T00:25:35.950Z,8.43
2018-06-02T00:28:07.030Z,7.77
2018-06-02T00:30:38.073Z,8.03
2018-06-02T00:33:09.123Z,8.37
2018-06-02T00:35:40.105Z,8.20
2018-06-02T00:38:11.153Z,10.03
2018-06-02T00:40:42.240Z,8.50
2018-06-02T00:43:13.272Z,9.10
2018-06-02T00:45:44.311Z,7.33
2018-06-02T00:48:15.310Z,7.87
2018-06-02T00:50:46.357Z,8.07
2018-06-02T00:53:17.335Z,8.20
2018-06-02T00:55:48.343Z,7.53
2018-06-02T00:58:20.172Z,8.07
2018-06-02T01:00:51.191Z,8.27
2018-06-02T01:03:22.247Z,7.97
2018-06-02T01:05:53.325Z,8.97
2018-06-02T01:08:24.385Z,8.30
2018-06-02T01:10:55.391Z,8.50
2018-06-02T01:13:26.437Z,8.27
2018-06-02T01:15:57.455Z,7.57
2018-06-02T01:18:28.478Z,5.80
2018-06-02T01:20:59.484Z,5.93
2018-06-02T01:23:30.495Z,6.50
2018-06-02T01:26:01.532Z,7.10
2018-06-02T01:28:32.501Z,5.47
2018-06-02T01:31:03.546Z,6.07
2018-06-02T01:33:34.552Z,5.87
2018-06-02T01:36:05.592Z,6.40
2018-06-02T01:38:36.581Z,6.73
2018-06-02T01:41:07.578Z,7.43
2018-06-02T01:43:38.576Z,8.87
2018-06-02T01:46:09.641Z,7.83
2018-06-02T01:48:40.669Z,6.77
2018-06-02T01:51:11.699Z,7.57
2018-06-02T01:53:42.652Z,7.53
2018-06-02T01:56:13.637Z,7.63
2018-06-02T01:58:44.682Z,6.67
2018-06-02T02:01:15.698Z,7.73
2018-06-02T02:03:46.734Z,7.63
2018-06-02T02:06:17.730Z,6.73
2018-06-02T02:08:48.788Z,8.03
2018-06-02T02:11:19.908Z,7.70
2018-06-02T02:13:50.956Z,7.73
2018-06-02T02:16:21.958Z,7.60
2018-06-02T02:18:53.031Z,7.40
2018-06-02T02:21:24.074Z,8.73
2018-06-02T02:23:55.069Z,7.67
2018-06-02T02:26:26.113Z,7.87
2018-06-02T02:28:57.134Z,7.80
2018-06-02T02:31:28.167Z,8.17
2018-06-02T02:33:59.221Z,8.13
2018-06-02T02:36:30.279Z,8.03
2018-06-02T02:39:01.302Z,7.97
2018-06-02T02:41:32.342Z,7.60
2018-06-02T02:44:03.404Z,8.43
2018-06-02T02:46:35.012Z,8.27
2018-06-02T02:49:06.036Z,7.60
2018-06-02T02:51:37.065Z,9.37
2018-06-02T02:54:08.073Z,8.60
2018-06-02T02:56:39.057Z,9.30
2018-06-02T02:59:10.074Z,8.87
2018-06-02T03:01:41.082Z,9.63
2018-06-02T03:04:12.126Z,9.43
2018-06-02T03:06:43.155Z,9.07
2018-06-02T03:09:14.208Z,8.73
2018-06-02T03:11:52.240Z,9.50
2018-06-02T03:14:23.232Z,10.47
2018-06-02T03:16:54.253Z,9.63
2018-06-02T03:19:25.248Z,9.50
2018-06-02T03:21:56.236Z,10.10
2018-06-02T03:24:27.285Z,9.80
2018-06-02T03:26:58.306Z,10.70
2018-06-02T03:29:29.452Z,11.10
2018-06-02T03:32:00.486Z,10.50
2018-06-02T03:34:31.494Z,11.00
2018-06-02T03:37:02.511Z,11.87
2018-06-02T03:39:33.530Z,10.97
2018-06-02T03:42:04.530Z,10.37
2018-06-02T03:44:35.552Z,11.20
2018-06-02T03:47:06.568Z,11.73
2018-06-02T03:49:37.561Z,11.07
2018-06-02T03:52:08.555Z,12.20
2018-06-02T03:54:39.584Z,11.50
2018-06-02T03:57:10.560Z,11.40
2018-06-02T03:59:41.608Z,10.60
2018-06-02T04:02:12.659Z,12.07
2018-06-02T04:04:43.668Z,11.00
2018-06-02T04:07:14.699Z,11.47
2018-06-02T04:09:45.680Z,12.47
2018-06-02T04:12:16.704Z,11.07
2018-06-02T04:14:47.720Z,11.87
2018-06-02T04:17:18.728Z,12.23
2018-06-02T04:19:49.746Z,12.17
2018-06-02T04:22:20.816Z,13.10
2018-06-02T04:24:51.806Z,11.57
2018-06-02T04:27:22.822Z,12.17
2018-06-02T04:29:53.810Z,11.90
2018-06-02T04:32:24.873Z,13.30
2018-06-02T04:34:55.843Z,11.97
2018-06-02T04:37:27.032Z,11.23
2018-06-02T04:39:58.035Z,12.20
2018-06-02T04:42:29.073Z,12.57
2018-06-02T04:45:00.035Z,12.13
2018-06-02T04:47:31.042Z,10.90
2018-06-02T04:50:02.115Z,13.10
2018-06-02T04:52:33.110Z,12.73
2018-06-02T04:55:04.123Z,11.53
2018-06-02T04:57:35.156Z,10.37
2018-06-02T05:00:06.290Z,11.23
2018-06-02T05:02:37.325Z,12.20
2018-06-02T05:05:08.300Z,11.47
2018-06-02T05:07:39.340Z,11.33
2018-06-02T05:10:10.292Z,10.00
2018-06-02T05:12:41.324Z,11.20
2018-06-02T05:15:12.404Z,10.43
2018-06-02T05:17:43.422Z,11.33
2018-06-02T05:20:14.408Z,10.57
2018-06-02T05:22:45.397Z,10.67
2018-06-02T05:25:16.453Z,9.97
2018-06-02T05:27:47.425Z,10.83
2018-06-02T05:30:18.434Z,10.53
2018-06-02T05:32:49.424Z,10.40
2018-06-02T05:35:20.433Z,10.93
2018-06-02T05:37:51.450Z,10.00
2018-06-02T05:40:22.439Z,10.47
2018-06-02T05:42:53.502Z,10.17
2018-06-02T05:45:24.509Z,12.33
2018-06-02T05:47:55.549Z,10.67
2018-06-02T05:50:26.596Z,10.53
2018-06-02T05:52:57.670Z,12.10
2018-06-02T05:55:28.711Z,10.70
2018-06-02T05:57:59.710Z,10.70
2018-06-02T06:00:30.678Z,11.83
2018-06-02T06:03:01.721Z,11.13
2018-06-02T06:05:32.736Z,10.70
2018-06-02T06:08:03.726Z,12.77
2018-06-02T06:10:34.780Z,10.47
2018-06-02T06:13:05.787Z,10.67
2018-06-02T06:15:36.804Z,9.83
2018-06-02T06:18:07.787Z,10.83
2018-06-02T06:20:38.848Z,12.37
2018-06-02T06:23:09.852Z,10.70
2018-06-02T06:25:40.915Z,9.87
2018-06-02T06:28:11.899Z,10.67
2018-06-02T06:30:42.967Z,9.33
2018-06-02T06:33:14.036Z,9.90
2018-06-02T06:35:45.070Z,10.20
2018-06-02T06:38:16.049Z,9.43
2018-06-02T06:40:47.082Z,9.70
2018-06-02T06:43:18.064Z,10.07
2018-06-02T06:45:49.062Z,9.43
2018-06-02T06:48:20.134Z,8.70
2018-06-02T06:50:51.143Z,9.53
2018-06-02T06:53:22.166Z,8.40
2018-06-02T06:55:53.384Z,7.87
2018-06-02T06:58:24.424Z,9.20
2018-06-02T07:00:55.454Z,8.00
2018-06-02T07:03:26.544Z,7.87
2018-06-02T07:05:57.571Z,7.53
2018-06-02T07:08:28.591Z,6.50
2018-06-02T07:10:59.600Z,7.37
2018-06-02T07:13:30.554Z,6.87
2018-06-02T07:16:01.582Z,6.90
2018-06-02T07:18:32.610Z,8.13
2018-06-02T07:21:03.650Z,7.07
2018-06-02T07:23:34.648Z,7.28
2018-06-02T07:26:05.673Z,8.00
2018-06-02T07:28:36.642Z,7.60
2018-06-02T07:31:07.632Z,7.35
2018-06-02T07:33:38.640Z,7.40
2018-06-02T07:36:09.724Z,6.77
2018-06-02T07:38:40.708Z,6.50
2018-06-02T07:41:11.701Z,6.03
2018-06-02T07:43:42.718Z,6.60
2018-06-02T07:46:13.777Z,4.85
2018-06-02T07:48:44.777Z,5.12
2018-06-02T07:51:15.813Z,4.15
2018-06-02T07:53:46.906Z,4.87
2018-06-02T07:56:17.903Z,5.30
2018-06-02T07:58:48.931Z,7.00
2018-06-02T08:01:19.914Z,5.83
2018-06-02T08:03:50.938Z,5.20
2018-06-02T08:06:21.987Z,5.87
2018-06-02T08:08:53.034Z,4.97
2018-06-02T08:11:24.070Z,5.20
2018-06-02T08:13:55.037Z,5.77
2018-06-02T08:16:26.041Z,5.03
2018-06-02T08:18:57.062Z,6.33
2018-06-02T08:21:28.073Z,4.07
2018-06-02T08:23:59.070Z,4.85
2018-06-02T08:26:30.076Z,4.70
2018-06-02T08:29:01.146Z,3.78
2018-06-02T08:31:32.222Z,3.97
2018-06-02T08:34:03.230Z,3.53
2018-06-02T08:36:34.209Z,4.30
2018-06-02T08:39:05.301Z,4.53
2018-06-02T08:41:36.312Z,3.90
2018-06-02T08:44:07.422Z,3.45
2018-06-02T08:46:38.459Z,3.70
2018-06-02T08:49:09.425Z,4.15
2018-06-02T08:51:40.628Z,3.75
2018-06-02T08:54:11.621Z,4.85
2018-06-02T08:56:42.635Z,3.65
2018-06-02T08:59:13.648Z,3.85
2018-06-02T09:01:44.696Z,8.45
2018-06-02T09:04:15.761Z,3.37
2018-06-02T09:06:46.775Z,3.60
2018-06-02T09:09:17.842Z,3.90
2018-06-02T09:11:48.826Z,3.87
2018-06-02T09:14:19.885Z,3.05
2018-06-02T09:16:50.881Z,3.42
2018-06-02T09:19:21.903Z,4.25
2018-06-02T09:21:52.966Z,3.37
2018-06-02T09:24:23.971Z,3.20
2018-06-02T09:26:55.023Z,3.40
2018-06-02T09:29:26.053Z,4.70
2018-06-02T09:31:57.139Z,3.40
2018-06-02T09:34:28.201Z,3.85
2018-06-02T09:36:59.254Z,3.97
2018-06-02T09:39:30.265Z,3.78
2018-06-02T09:42:04.088Z,3.90
2018-06-02T09:44:35.062Z,4.77
2018-06-02T09:47:06.077Z,3.53
2018-06-02T09:49:37.074Z,3.17
2018-06-02T09:52:08.108Z,4.05
2018-06-02T09:54:39.115Z,3.20
2018-06-02T09:57:10.122Z,3.70
2018-06-02T09:59:41.115Z,3.97
2018-06-02T10:02:12.156Z,3.85
2018-06-02T10:04:43.250Z,4.78
2018-06-02T10:07:14.245Z,3.20
2018-06-02T10:09:45.302Z,3.78
2018-06-02T10:12:16.369Z,3.00
2018-06-02T10:14:47.357Z,3.17
2018-06-02T10:17:18.387Z,2.53
2018-06-02T10:19:49.490Z,2.90
2018-06-02T10:22:20.504Z,3.15
2018-06-02T10:24:51.511Z,3.35
2018-06-02T10:27:22.572Z,2.83
2018-06-02T10:30:00.652Z,3.50
2018-06-02T10:32:31.685Z,3.50
2018-06-02T10:35:02.843Z,3.30
2018-06-02T10:37:33.894Z,3.47
2018-06-02T10:40:04.988Z,3.47
2018-06-02T10:42:36.124Z,3.60
2018-06-02T10:45:07.168Z,3.40
2018-06-02T10:47:38.190Z,3.22
2018-06-02T10:50:09.222Z,7.75
2018-06-02T10:52:40.265Z,2.40
2018-06-02T10:55:11.252Z,3.78
2018-06-02T10:57:42.316Z,2.83
2018-06-02T11:00:13.344Z,2.70
2018-06-02T11:02:44.356Z,2.85
2018-06-02T11:05:15.347Z,2.62
2018-06-02T11:07:46.364Z,3.20
2018-06-02T11:10:17.372Z,5.05
2018-06-02T11:12:48.384Z,3.33
2018-06-02T11:15:19.365Z,2.47
2018-06-02T11:17:50.390Z,2.63
2018-06-02T11:20:21.454Z,3.37
2018-06-02T11:22:52.495Z,2.67
2018-06-02T11:25:23.524Z,2.87
2018-06-02T11:27:54.590Z,4.00
2018-06-02T11:30:25.580Z,3.30
2018-06-02T11:32:56.584Z,2.70
2018-06-02T11:35:27.551Z,2.60
2018-06-02T11:37:58.548Z,2.20
2018-06-02T11:40:29.574Z,2.40
2018-06-02T11:43:00.607Z,3.10
2018-06-02T11:45:31.676Z,2.40
2018-06-02T11:48:02.707Z,2.27
2018-06-02T11:50:33.732Z,2.10
2018-06-02T11:53:04.785Z,2.60
2018-06-02T11:55:35.755Z,2.60
2018-06-02T11:58:06.780Z,3.60
2018-06-02T12:00:37.761Z,2.30
2018-06-02T12:03:08.751Z,2.60
2018-06-02T12:05:39.784Z,2.40
2018-06-02T12:08:10.802Z,2.50
2018-06-02T12:10:41.806Z,2.63
2018-06-02T12:13:12.831Z,2.60
2018-06-02T12:15:43.855Z,2.20
2018-06-02T12:18:14.925Z,3.47
2018-06-02T12:20:45.968Z,3.87
2018-06-02T12:23:17.057Z,2.70
2018-06-02T12:25:48.078Z,2.40
2018-06-02T12:28:19.764Z,2.53
2018-06-02T12:30:50.716Z,2.73
2018-06-02T12:33:21.796Z,2.43
2018-06-02T12:35:52.862Z,2.30
2018-06-02T12:38:23.909Z,2.40
2018-06-02T12:40:54.920Z,2.50
2018-06-02T12:43:25.912Z,2.70
2018-06-02T12:45:56.917Z,2.90
2018-06-02T12:48:28.040Z,2.80
2018-06-02T12:50:59.029Z,3.20
2018-06-02T12:53:30.067Z,3.53
2018-06-02T12:56:01.069Z,2.73
2018-06-02T12:58:32.130Z,2.57
2018-06-02T13:01:03.125Z,2.50
2018-06-02T13:03:34.192Z,2.70
2018-06-02T13:06:05.254Z,2.33
2018-06-02T13:08:36.255Z,2.40
2018-06-02T13:11:10.044Z,2.77
2018-06-02T13:13:41.049Z,2.17
2018-06-02T13:16:12.038Z,2.50
2018-06-02T13:18:43.101Z,2.20
2018-06-02T13:21:14.139Z,2.53
2018-06-02T13:23:45.128Z,2.33
2018-06-02T13:26:16.123Z,2.30
2018-06-02T13:28:47.137Z,2.07
2018-06-02T13:34:14.188Z,2.23
2018-06-02T13:36:45.171Z,2.10
2018-06-02T13:39:16.185Z,2.13
2018-06-02T13:41:47.242Z,2.30
2018-06-02T13:44:18.281Z,2.23
2018-06-02T13:46:49.333Z,2.20
2018-06-02T13:49:20.378Z,2.90
2018-06-02T13:51:51.365Z,4.23
2018-06-02T13:54:22.393Z,2.50
2018-06-02T13:56:53.438Z,2.33
2018-06-02T13:59:24.458Z,2.53
2018-06-02T14:01:55.474Z,2.17
2018-06-02T14:04:26.548Z,2.10
2018-06-02T14:06:57.568Z,2.20
2018-06-02T14:09:28.596Z,2.00
2018-06-02T14:11:59.615Z,2.43
2018-06-02T14:14:30.678Z,2.33
2018-06-02T14:17:01.744Z,4.23
2018-06-02T14:19:32.814Z,3.10
2018-06-02T14:22:03.879Z,1.93
2018-06-02T14:24:34.872Z,2.20
2018-06-02T14:27:05.920Z,2.10
2018-06-02T14:29:36.973Z,1.90
2018-06-02T14:32:08.022Z,2.00
2018-06-02T14:34:39.027Z,2.27
2018-06-02T14:37:10.065Z,2.10
2018-06-02T14:39:41.065Z,2.10
2018-06-02T14:42:12.128Z,2.23
2018-06-02T14:44:43.128Z,2.13
2018-06-02T14:47:14.200Z,2.17
2018-06-02T14:49:45.196Z,2.37
2018-06-02T14:52:16.241Z,2.07
2018-06-02T14:54:47.243Z,2.70
2018-06-02T14:57:18.293Z,2.07
2018-06-02T14:59:49.315Z,2.10
2018-06-02T15:02:20.367Z,1.70
2018-06-02T15:04:51.417Z,2.57
2018-06-02T15:07:22.459Z,2.17
2018-06-02T15:09:53.534Z,2.00
2018-06-02T15:12:24.600Z,2.30
2018-06-02T15:14:55.574Z,2.10
2018-06-02T15:17:26.609Z,2.13
2018-06-02T15:19:57.729Z,2.10
2018-06-02T15:22:28.719Z,1.93
2018-06-02T15:24:59.918Z,3.30
2018-06-02T15:27:30.991Z,3.90
2018-06-02T15:30:02.031Z,2.73
2018-06-02T15:32:33.123Z,2.83
2018-06-02T15:35:04.172Z,3.40
2018-06-02T15:37:35.172Z,2.90
2018-06-02T15:40:06.208Z,2.67
2018-06-02T15:42:37.284Z,2.77
2018-06-02T15:45:08.304Z,2.53
2018-06-02T15:47:39.301Z,3.50
2018-06-02T15:50:10.341Z,3.27
2018-06-02T15:52:41.331Z,2.20
2018-06-02T15:55:12.361Z,2.67
2018-06-02T15:57:43.413Z,2.80
2018-06-02T16:00:14.498Z,2.20
2018-06-02T16:02:45.569Z,2.70
2018-06-02T16:05:16.661Z,2.70
2018-06-02T16:07:47.668Z,2.30
2018-06-02T16:10:18.726Z,3.87
2018-06-02T16:12:49.774Z,2.40
2018-06-02T16:15:20.835Z,2.70
2018-06-02T16:17:51.882Z,2.37
2018-06-02T16:20:23.034Z,2.60
2018-06-02T16:22:54.028Z,2.90
2018-06-02T16:25:25.065Z,2.87
2018-06-02T16:27:56.058Z,2.33
2018-06-02T16:30:27.170Z,3.60
2018-06-02T16:32:58.190Z,4.97
2018-06-02T16:35:29.212Z,3.90
2018-06-02T16:38:00.210Z,2.70
2018-06-02T16:40:31.200Z,2.40
2018-06-02T16:43:02.224Z,2.20
2018-06-02T16:45:33.298Z,2.57
2018-06-02T16:48:04.378Z,4.40
2018-06-02T16:50:35.396Z,2.23
2018-06-02T16:53:06.488Z,3.20
2018-06-02T16:55:37.561Z,2.23
2018-06-02T16:58:08.590Z,3.50
2018-06-02T17:00:39.608Z,2.37
2018-06-02T17:03:10.613Z,2.50
2018-06-02T17:05:41.594Z,2.63
2018-06-02T17:08:12.702Z,3.63
2018-06-02T17:10:45.930Z,2.50
2018-06-02T17:13:17.182Z,3.13
2018-06-02T17:15:48.432Z,2.90
2018-06-02T17:18:19.570Z,4.63
2018-06-02T17:20:50.647Z,2.57
2018-06-02T17:23:21.670Z,2.67
2018-06-02T17:25:52.661Z,2.60
2018-06-02T17:28:23.678Z,2.30
2018-06-02T17:30:54.697Z,2.83
2018-06-02T17:33:25.763Z,2.67
2018-06-02T17:35:56.839Z,2.43
2018-06-02T17:38:27.988Z,2.70
2018-06-02T17:40:58.967Z,2.87
2018-06-02T17:43:30.085Z,3.07
2018-06-02T17:46:01.172Z,2.87
2018-06-02T17:48:32.212Z,2.40
2018-06-02T17:51:03.217Z,2.50
2018-06-02T17:53:34.344Z,4.80
2018-06-02T17:56:12.471Z,2.50
2018-06-02T17:58:43.481Z,2.90
2018-06-02T18:01:14.488Z,3.20
2018-06-02T18:03:45.509Z,2.93
2018-06-02T18:06:16.528Z,2.20
2018-06-02T18:08:47.618Z,3.00
2018-06-02T18:11:18.690Z,4.20
2018-06-02T18:13:49.769Z,4.37
2018-06-02T18:16:20.874Z,2.97
2018-06-02T18:18:51.983Z,3.57
2018-06-02T18:21:22.986Z,2.90
2018-06-02T18:23:54.030Z,4.10
2018-06-02T18:26:25.109Z,7.07
2018-06-02T18:28:56.197Z,4.60
2018-06-02T18:31:27.292Z,4.13
2018-06-02T18:33:59.110Z,3.27
2018-06-02T18:36:30.182Z,3.20
2018-06-02T18:39:01.222Z,3.73
2018-06-02T18:41:32.286Z,3.57
2018-06-02T18:44:03.290Z,5.47
2018-06-02T18:46:34.307Z,6.17
2018-06-02T18:49:05.320Z,7.43
2018-06-02T18:51:36.339Z,4.83
2018-06-02T18:54:07.400Z,4.53
2018-06-02T18:56:38.435Z,4.10
2018-06-02T18:59:09.436Z,3.40
2018-06-02T19:01:40.512Z,4.17
2018-06-02T19:04:11.496Z,3.10
2018-06-02T19:06:42.551Z,4.23
2018-06-02T19:09:13.609Z,3.47
2018-06-02T19:11:44.641Z,5.13
2018-06-02T19:14:15.643Z,4.93
2018-06-02T19:16:46.670Z,4.57
2018-06-02T19:19:17.639Z,3.90
2018-06-02T19:21:48.642Z,4.10
2018-06-02T19:24:19.810Z,4.67
2018-06-02T19:26:50.808Z,5.07
2018-06-02T19:29:21.860Z,4.00
2018-06-02T19:31:52.906Z,4.63
2018-06-02T19:34:23.885Z,4.27
2018-06-02T19:36:55.009Z,4.93
2018-06-02T19:39:25.972Z,5.50
2018-06-02T19:41:57.005Z,5.13
2018-06-02T19:44:28.005Z,4.47
2018-06-02T19:46:59.012Z,5.07
2018-06-02T19:49:30.056Z,5.30
2018-06-02T19:52:01.131Z,5.50
2018-06-02T19:54:32.164Z,5.57
2018-06-02T19:57:03.220Z,5.10
2018-06-02T19:59:34.273Z,4.87
2018-06-02T20:02:05.311Z,4.80
2018-06-02T20:04:36.301Z,5.10
2018-06-02T20:07:07.334Z,7.03
2018-06-02T20:09:38.476Z,5.00
2018-06-02T20:12:09.571Z,5.17
2018-06-02T20:14:40.618Z,5.17
2018-06-02T20:17:11.677Z,5.63
2018-06-02T20:19:42.673Z,5.60
2018-06-02T20:22:13.776Z,4.87
2018-06-02T20:24:44.884Z,4.63
2018-06-02T20:27:15.883Z,5.70
2018-06-02T20:29:46.960Z,8.30
2018-06-02T20:32:18.003Z,9.80
2018-06-02T20:34:49.076Z,5.90
2018-06-02T20:37:20.111Z,5.47
2018-06-02T20:39:51.100Z,6.50
2018-06-02T20:42:22.219Z,5.33
2018-06-02T20:44:53.203Z,6.20
2018-06-02T20:47:24.256Z,4.60
2018-06-02T20:49:55.383Z,4.87
2018-06-02T20:52:26.442Z,5.93
2018-06-02T20:54:57.520Z,4.53
2018-06-02T20:57:28.550Z,4.00
2018-06-02T20:59:59.739Z,4.63
2018-06-02T21:02:30.852Z,4.30
2018-06-02T21:05:01.873Z,3.87
2018-06-02T21:07:32.960Z,4.30
2018-06-02T21:10:04.005Z,4.17
2018-06-02T21:12:35.165Z,3.77
2018-06-02T21:15:06.202Z,4.07
2018-06-02T21:17:37.249Z,4.73
2018-06-02T21:20:08.283Z,4.40
2018-06-02T21:22:39.327Z,4.50
2018-06-02T21:25:10.329Z,4.97
2018-06-02T21:27:41.488Z,6.83
2018-06-02T21:30:12.509Z,4.60
2018-06-02T21:32:43.557Z,4.00
2018-06-02T21:35:14.648Z,4.50
2018-06-02T21:37:45.651Z,4.07
2018-06-02T21:40:16.769Z,4.20
2018-06-02T21:42:47.804Z,4.03
2018-06-02T21:45:18.863Z,4.00
2018-06-02T21:47:49.848Z,4.97
2018-06-02T21:50:21.029Z,6.27
2018-06-02T21:52:52.123Z,6.00
2018-06-02T21:55:23.222Z,10.67
2018-06-02T21:57:54.261Z,7.20
2018-06-02T22:00:25.365Z,7.53
2018-06-02T22:02:56.452Z,7.00
2018-06-02T22:05:27.492Z,7.80
2018-06-02T22:07:58.527Z,7.47
2018-06-02T22:10:29.586Z,8.43
2018-06-02T22:13:00.665Z,8.13
2018-06-02T22:15:31.788Z,8.23
2018-06-02T22:18:02.816Z,7.73
2018-06-02T22:20:33.843Z,8.27
2018-06-02T22:23:04.877Z,8.40
2018-06-02T22:25:35.951Z,8.00
2018-06-02T22:28:06.957Z,7.97
2018-06-02T22:30:38.070Z,8.40
2018-06-02T22:33:09.103Z,7.40
2018-06-02T22:35:40.201Z,8.80
2018-06-02T22:38:11.219Z,7.80
2018-06-02T22:40:42.321Z,8.10
2018-06-02T22:43:13.383Z,7.63
2018-06-02T22:45:44.369Z,8.77
2018-06-02T22:48:15.418Z,7.53
2018-06-02T22:50:46.508Z,7.80
2018-06-02T22:53:17.574Z,7.00
2018-06-02T22:55:48.702Z,8.00
2018-06-02T22:58:19.779Z,7.97
2018-06-02T23:00:50.830Z,8.10
2018-06-02T23:03:21.900Z,7.57
2018-06-02T23:05:52.968Z,8.23
2018-06-02T23:08:24.058Z,8.87
2018-06-02T23:10:55.151Z,11.03
2018-06-02T23:13:26.190Z,9.30
2018-06-02T23:15:57.187Z,8.73
2018-06-02T23:18:28.212Z,10.37
2018-06-02T23:20:59.219Z,8.10
2018-06-02T23:23:30.249Z,7.40
2018-06-02T23:26:01.296Z,6.80
2018-06-02T23:28:32.310Z,8.87
2018-06-02T23:31:03.321Z,6.83
2018-06-02T23:33:34.386Z,8.13
2018-06-02T23:36:05.413Z,9.10
2018-06-02T23:38:36.488Z,7.70
2018-06-02T23:41:07.487Z,7.73
2018-06-02T23:43:38.597Z,7.47
2018-06-02T23:46:09.645Z,7.37
2018-06-02T23:48:40.662Z,6.80
2018-06-02T23:51:11.845Z,6.70
2018-06-02T23:53:42.914Z,6.73
2018-06-02T23:56:14.027Z,7.63
2018-06-02T23:58:45.092Z,7.40
